Terminal Aerodrome Forecast
Issued by NWS Albany, NY

Home | Current Version | Previous Version | Text Only | Print | Product List | Glossary On
Versions: 1 2 3 4 5 6 7 8 9 10 11 12 13 14 15
866
FTUS41 KALY 171120
TAFPOU
TAF
KPOU 171120Z 1712/1812 VRB03KT P6SM SCT045
     FM171600 VRB02KT P6SM BKN150
     FM180500 00000KT P6SM VCSH SCT010 OVC025 PROB30 1808/1812 4SM
      -SHSN BR BKN010 OVC025=

USA.gov is the U.S. government's official web portal to all federal, state and local government web resources and services.